Aeroporto :
LOGIN :

Iscrizione | Disclaimer

   EN    FR    IT 

 










Sommario :    VFR   VFR Marginale   IFR   IFR Intensivo   IFR Molto Intensivo
Visibilità : 
Base nubi : 
>= 8 km
>= 3000ft
5 / 8 km
1000 / 3000 ft
1500m / 5 km
500 / 1000 ft
800 / 1500m
200 / 500 ft
< 800m
< 200 ft
Simboli :   Temporali  Nebbia  Neve Forte  Precipitazioni Forti  Vento > 20 kt
SIGMETs :   Varie  Temporali  Ghiacco  Turbolenza  Onda orograficha  Ceneri Vulcaniche






- Altitudine del aeroporto : 1768 ft


LEHC - Huesca Pirineos

ULTIMO METAR :
  • 250000Z AUTO 09004KT CAVOK 06/06 Q1020

METARs OBSOLETI :
  • 242330Z AUTO 08003KT 9999 OVC068 06/06 Q1021
  • 242300Z AUTO 08003KT 050V110 9999 FEW042 BKN065 06/06 Q1021
  • 242230Z AUTO 04002KT 9999 FEW048 BKN065 06/06 Q1021
  • 242200Z AUTO 05002KT 9999 -RA SCT057 BKN069 06/06 Q1021
  • 242130Z AUTO 04003KT 9999 BKN060 06/06 Q1021
  • 242100Z AUTO 02002KT 9999 OVC068 06/06 Q1021

TAF TAF LEHC
Valido dal 24 a 15 ore il 25 a 15 ore UTC


241400Z 2415/2515 VRB02KT 9999 SCT025 TX09/2513Z TN03/2506Z
BECMG 2417/2419 4000 BR BKN010
TEMPO 2418/2508 0500 BCFG VV002
BECMG 2508/2510 09010KT 9999 NSW



MetMap, La meteo Aeronautica in un colpo d'occhio ! - Copyright ORBIFLY Dicembre 2007 - Disclaimer

ORBIFLY MET'MAP TEAM :

Programmazione e sviluppo : Alexandra Zaïnal
Concezione : Baudouin d'Aumeries
Aiuto per la programmazione : Marc-Olivier Méhu
Supporto tecnico e logistico : Manuel Goepfert
Aiuto per la traduzione : Arnaldo La Scala

Contatto : metmap@orbifly.com




FONTI E CREDITI :

   NOAA